Terminal Aerodrome Forecast
Issued by NWS King Salmon, AK

Home | Current Version | Previous Version | Text Only | Print | Product List | Glossary On
Versions: 1 2 3 4 5 6 7 8 9 10 11 12 13 14 15 16 17 18 19 20 21 22 23 24 25 26 27 28 29 30 31 32
000
FTAK31 PANC 231729
TAFAKN
TAF
PAKN 231729Z 2318/2418 15015G25KT P6SM FEW040 BKN120
     FM232000 16015G28KT P6SM FEW040 BKN120 WS020/19050KT
     FM240300 17015G23KT P6SM VCSH SCT040 BKN060
     FM240600 17010KT P6SM -RA BKN025 OVC050
     FM240900 17008KT 3SM -RA BR OVC008=

USA.gov is the U.S. government's official web portal to all federal, state and local government web resources and services.